Aviation Digital Data Service (ADDS)

Output produced by METARs form (0243 UTC 24 July 2017)
found at http://www.aviationweather.gov/adds/metars/
 
VTBD 240230Z 24010KT 210V280 9999 FEW030 30/25 Q1008 NOSIG
TAF VTBD 232300Z 2400/2506 26005KT 9999 FEW030 
     BECMG 2405/2407 FEW020 SCT040 
     TEMPO 2410/2415 26015KT 5000 TSRA FEW018CB SCT035 BKN100 
     BECMG 2420/2422 FEW020
       
VTUO 240000Z VRB04KT 8000 FEW025 26/25 Q1007 A2975 INFO A RWY 22
TAF VTUO 232300Z 2400/2424 24005KT 8000 SCT025 BKN100 
     TEMPO 2409/2413 VRB10KT 5000 TSRA FEW018CB BKN020 OVC100
       
VTCC 240230Z VRB02KT 9999 FEW018 BKN035 28/23 Q1010 NOSIG
TAF VTCC 232300Z 2400/2506 21005KT 9999 SCT035 
     TEMPO 2409/2415 VRB10G25KT 4000 TSRA FEW025CB BKN030
       
VTCT 240200Z 20003KT 9999 FEW009 BKN012 26/25 Q1009
TAF VTCT 232300Z 2400/2506 21005KT 9999 BKN030 
     TEMPO 2409/2415 VRB10G25KT 4000 TSRA FEW025CB BKN030
       
VTSE 240200Z 26005KT 7000 FEW022 28/25 Q1009
TAF VTSE 232300Z 2400/2424 25011KT 9999 FEW020 
     PROB30 
     TEMPO 2407/2412 6000 -RA SCT015 BKN100 
     BECMG 2414/2416 VRB02KT
       
VTSS 240230Z 23004KT 9999 FEW020 30/24 Q1010 NOSIG
TAF VTSS 232300Z 2400/2424 23010KT 9999 FEW020 
     PROB40 
     TEMPO 2407/2412 VRB14KT 6000 -RA SCT015 BKN100 
     BECMG 2413/2415 VRB02KT
       
VTPH 240200Z VRB03KT 8000 -RA BKN025 27/25 Q1008
TAF VTPH 232300Z 2400/2424 00000KT 9999 FEW030 
     BECMG 2403/2405 14008KT 
     BECMG 2412/2414 26005KT
       
VTUK 240200Z 27007KT 9999 FEW030 28/25 Q1006 NOSIG
TAF VTUK 232300Z 2400/2424 22003KT 9999 SCT020 SCT080 
     TEMPO 2407/2414 VRB15KT 5000 TSRA FEW018CB BKN020 BKN080
       
TAF VTSG 232300Z 2400/2424 26008KT 9999 FEW020 
     BECMG 2412/2414 VRB03KT
       
VTCL 240200Z VRB02KT 9999 BKN025 BKN100 28/23 Q1008
TAF VTCL 232300Z 2400/2424 20005KT 9999 SCT025 
     TEMPO 2409/2415 VRB10G25KT 4000 TSRA FEW020CB BKN030
       
VTUL 240200Z 33005KT 280V020 9999 FEW015 FEW032 28/24 Q1007
TAF VTUL 232300Z 2400/2424 26003KT 9999 SCT020 SCT080 
     TEMPO 2406/2414 VRB15KT 5000 TSRA FEW018CB BKN020 BKN080
       
VTCH 240200Z 00000KT 9999 FEW018 BKN025 26/22 Q1009
TAF VTCH 232300Z 2400/2424 22005KT 9999 BKN030 
     TEMPO 2409/2415 VRB10G25KT 4000 TSRA FEW025CB BKN030
       
VTPM 240200Z 12004KT 8000 -RA SCT15 BKN22 OVC100 25/24 Q1008
TAF VTPM 232300Z 2400/2424 22005KT 9999 SCT025 
     TEMPO 2408/2414 VRB10G25KT 4000 TSRA FEW020CB BKN030
       
VTUW 240200Z 31004KT 220V350 9999 FEW020 SCT030 28/24 Q1006
TAF VTUW 232300Z 2400/2424 30004KT 9999 SCT020 BKN080 
     TEMPO 2400/2407 VRB15KT 5000 TSRA FEW018CB BKN020 BKN080 
     TEMPO 2416/2423 VRB15KT 5000 TSRA FEW018CB BKN020 BKN080
       
VTUQ 240200Z AUTO 26007KT 210V300 ////NDV ////// 29/24 Q1008 A2978
TAF VTUQ 232300Z 2400/2424 26005KT 9000 SCT025 SCT100 
     TEMPO 2409/2413 VRB10KT 5000 TSRA FEW018CB BKN020 OVC100
       
VTSF 240200Z 00000KT 9999 FEW018 28/24 Q1009
TAF VTSF 232300Z 2400/2424 24005KT 9999 FEW020 
     BECMG 2406/2408 07010KT 
     BECMG 2413/2415 00000KT
       
VTCN 240200Z VRB02KT 9999 BKN020 SCT100 27/25 Q1007 A2976
TAF VTCN 232300Z 2400/2424 20005KT 9999 BKN030 
     TEMPO 2409/2415 VRB10G25KT 4000 TSRA FEW025CB BKN030
       
VTSC 240200Z VRB03KT 8000 FEW022 30/25 Q1010
TAF VTSC 232300Z 2400/2424 20005KT 9999 FEW020 
     BECMG 2404/2406 06010KT 
     TEMPO 2407/2413 VRB13KT 7000 -TSRA FEW016CB SCT018 BKN100 
     BECMG 2414/2416 VRB02KT
       
TAF VTSK 232300Z 2400/2424 00000KT 8000 FEW020 SCT100 
     BECMG 2402/2404 25010KT 
     BECMG 2407/2409 03004KT
       
TAF VTPB 232300Z 2400/2424 20005KT 9999 SCT025 
     TEMPO 2409/2415 VRB10G25KT 4000 TSRA FEW020CB BKN030
       
VTPP 240200Z VRB02KT 9999 SCT020 29/24 Q1007
TAF VTPP 232300Z 2400/2424 21005KT 9999 SCT025 
     TEMPO 2409/2415 VRB10G25KT 4000 TSRA FEW020CB BKN030
       
VTCP 240200Z 00000KT 9999 FEW018 28/23 Q1007 A2976
TAF VTCP 232300Z 2400/2424 20005KT 9999 SCT025 
     TEMPO 2409/2415 VRB10G25KT 4000 TSRA FEW020CB BKN030
       
VTSP 240230Z 27006KT 220V290 7000 FEW016 BKN100 29/25 Q1011 NOSIG
TAF VTSP 232300Z 2400/2506 28010KT 9000 FEW020 BKN100 
     BECMG 2410/2412 VRB03KT
       
VTSR 240100Z 00000KT 9999 BKN022 27/26 Q1010
TAF VTSR 232300Z 2400/2424 23008KT 9000 FEW025 
     BECMG 2412/2414 VRB03KT
       
VTUV 240100Z 26007KT 6000 SCT020 BKN100 27/24 Q1006 A2972 INFO B RWY 36
TAF VTUV 232300Z 2400/2424 22005KT 9000 SCT025 BKN100 
     TEMPO 2408/2412 VRB10KT 5000 TSRA FEW018CB BKN020 OVC100
       
VTUI 240200Z VRB02KT 9999 FEW010 SCT025 28/25 Q1006
TAF VTUI 232300Z 2400/2424 28004KT 9999 SCT020 BKN080 
     TEMPO 2400/2407 VRB15KT 5000 TSRA FEW018CB BKN020 BKN080 
     TEMPO 2416/2423 VRB15KT 5000 TSRA FEW018CB BKN020 BKN080
       
VTSM 240230Z 31003KT 9999 FEW020 30/23 Q1010
TAF VTSM 232300Z 2400/2424 00000KT 9999 FEW020 
     BECMG 2403/2405 32010KT 
     BECMG 2412/2414 00000KT
       
VTSH 240200Z 24006KT 8000 FEW020 31/24 Q1010 NOSIG
TAF VTSH 232300Z 2400/2424 22006KT 8000 FEW020 
     BECMG 2407/2409 03010KT 
     BECMG 2413/2415 00000KT
       
VTPO 240200Z 29003KT 9999 FEW010 SCT018 28/25 Q1007
TAF VTPO 232300Z 2400/2424 21005KT 9999 SCT025 
     TEMPO 2409/2415 VRB10G25KT 4000 TSRA FEW020CB BKN030
       
VTSB 240200Z 19006KT 7000 FEW020 27/24 Q1010
TAF VTSB 232300Z 2400/2424 00000KT 9999 FEW020 
     BECMG 2402/2404 25012KT 
     PROB30 
     TEMPO 2407/2412 7000 -RA SCT015 BKN100 
     BECMG 2414/2416 VRB02KT
       
TAF VTPT 232300Z 2400/2424 22005KT 9999 SCT030 
     TEMPO 2409/2415 VRB10G25KT 4000 TSRA FEW025CB BKN030
       
VTST 240200Z 00000KT 7000 FEW020 30/26 Q1009
TAF VTST 232300Z 2400/2424 24008KT 8000 SCT020 
     BECMG 2412/2414 VRB03KT 
     BECMG 2420/2422 00000KT 5000 BR 
     BECMG 2500/2502 24008KT 8000 NSW
       
VTBU 240230Z 29006KT 9000 FEW020CB SCT100 28/21 Q1008 NOSIG
TAF VTBU 232300Z 2400/2424 35003KT 7000 FEW020 SCT100 
     TEMPO 2401/2406 VRB10KT 5000 -TSRA FEW018CB SCT035 BKN100 
     BECMG 2406/2408 23008KT 8000
       
VTUU 240200Z 27007KT 9999 FEW0250 SCT025 BKN100 28/26 Q1006 NOSIG
TAF VTUU 232300Z 2400/2424 24005KT 9000 SCT025 SCT100 
     TEMPO 2408/2412 VRB10KT 5000 TSRA FEW018CB BKN020 OVC100
       
VTUD 240200Z 28010KT 240V300 CAVOK 29/24 Q1006
TAF VTUD 232300Z 2400/2424 20003KT 9999 SCT020 SCT080 
     TEMPO 2406/2414 VRB15KT 5000 TSRA FEW018CB BKN020 BKN080